sensor_id;sensor_type;location;lat;lon;timestamp;P1;durP1;ratioP1;P2;durP2;ratioP2
77880;SDS011;67077;50.298;18.996;2023-07-09T00:02:22;7.40;;;5.10;;
77880;SDS011;67077;50.298;18.996;2023-07-09T00:04:52;7.20;;;5.10;;
77880;SDS011;67077;50.298;18.996;2023-07-09T00:09:59;9.60;;;5.40;;
77880;SDS011;67077;50.298;18.996;2023-07-09T00:12:28;13.30;;;5.80;;
77880;SDS011;67077;50.298;18.996;2023-07-09T00:14:57;9.10;;;5.60;;
77880;SDS011;67077;50.298;18.996;2023-07-09T00:17:28;10.50;;;5.50;;
77880;SDS011;67077;50.298;18.996;2023-07-09T00:20:02;9.70;;;5.70;;
77880;SDS011;67077;50.298;18.996;2023-07-09T00:22:42;10.90;;;5.70;;
77880;SDS011;67077;50.298;18.996;2023-07-09T00:25:21;8.70;;;5.70;;
77880;SDS011;67077;50.298;18.996;2023-07-09T00:27:52;8.80;;;5.80;;
77880;SDS011;67077;50.298;18.996;2023-07-09T00:30:21;8.80;;;5.70;;
77880;SDS011;67077;50.298;18.996;2023-07-09T00:32:50;8.70;;;5.70;;
77880;SDS011;67077;50.298;18.996;2023-07-09T00:35:21;9.80;;;5.90;;
77880;SDS011;67077;50.298;18.996;2023-07-09T00:37:51;13.30;;;5.80;;
77880;SDS011;67077;50.298;18.996;2023-07-09T00:40:21;8.80;;;5.70;;
77880;SDS011;67077;50.298;18.996;2023-07-09T00:42:52;9.30;;;5.80;;
77880;SDS011;67077;50.298;18.996;2023-07-09T00:45:23;10.80;;;6.50;;
77880;SDS011;67077;50.298;18.996;2023-07-09T00:48:01;9.40;;;6.20;;
77880;SDS011;67077;50.298;18.996;2023-07-09T00:50:35;7.40;;;5.70;;
77880;SDS011;67077;50.298;18.996;2023-07-09T00:53:20;8.50;;;5.70;;
77880;SDS011;67077;50.298;18.996;2023-07-09T00:55:55;8.80;;;5.90;;
77880;SDS011;67077;50.298;18.996;2023-07-09T00:58:37;10.20;;;6.20;;
77880;SDS011;67077;50.298;18.996;2023-07-09T01:01:11;10.90;;;6.70;;
77880;SDS011;67077;50.298;18.996;2023-07-09T01:03:47;10.70;;;6.80;;
77880;SDS011;67077;50.298;18.996;2023-07-09T01:06:30;9.40;;;6.70;;
77880;SDS011;67077;50.298;18.996;2023-07-09T01:09:04;10.50;;;6.30;;
77880;SDS011;67077;50.298;18.996;2023-07-09T01:11:34;9.80;;;6.60;;
77880;SDS011;67077;50.298;18.996;2023-07-09T01:14:06;8.20;;;6.00;;
77880;SDS011;67077;50.298;18.996;2023-07-09T01:16:41;7.00;;;5.70;;
77880;SDS011;67077;50.298;18.996;2023-07-09T01:19:13;9.90;;;5.90;;
77880;SDS011;67077;50.298;18.996;2023-07-09T01:21:45;14.80;;;5.80;;
77880;SDS011;67077;50.298;18.996;2023-07-09T01:24:15;9.80;;;6.10;;
77880;SDS011;67077;50.298;18.996;2023-07-09T01:27:04;10.80;;;5.70;;
77880;SDS011;67077;50.298;18.996;2023-07-09T01:29:33;10.60;;;6.10;;
77880;SDS011;67077;50.298;18.996;2023-07-09T01:32:03;9.80;;;5.70;;
77880;SDS011;67077;50.298;18.996;2023-07-09T01:34:34;9.30;;;6.30;;
77880;SDS011;67077;50.298;18.996;2023-07-09T01:37:02;8.20;;;6.00;;
77880;SDS011;67077;50.298;18.996;2023-07-09T01:39:31;7.90;;;5.50;;
77880;SDS011;67077;50.298;18.996;2023-07-09T01:42:00;8.10;;;5.90;;
77880;SDS011;67077;50.298;18.996;2023-07-09T01:44:28;9.40;;;6.10;;
77880;SDS011;67077;50.298;18.996;2023-07-09T01:46:56;8.00;;;6.10;;
77880;SDS011;67077;50.298;18.996;2023-07-09T01:49:24;10.20;;;6.60;;
77880;SDS011;67077;50.298;18.996;2023-07-09T01:52:00;12.10;;;6.20;;
77880;SDS011;67077;50.298;18.996;2023-07-09T01:54:31;9.10;;;6.10;;
77880;SDS011;67077;50.298;18.996;2023-07-09T01:57:19;9.50;;;6.30;;
77880;SDS011;67077;50.298;18.996;2023-07-09T01:59:53;9.20;;;6.20;;
77880;SDS011;67077;50.298;18.996;2023-07-09T02:02:22;10.20;;;6.30;;
77880;SDS011;67077;50.298;18.996;2023-07-09T02:04:52;10.00;;;6.40;;
77880;SDS011;67077;50.298;18.996;2023-07-09T02:07:22;10.50;;;6.80;;
77880;SDS011;67077;50.298;18.996;2023-07-09T02:09:52;10.20;;;7.00;;
77880;SDS011;67077;50.298;18.996;2023-07-09T02:12:21;11.10;;;6.50;;
77880;SDS011;67077;50.298;18.996;2023-07-09T02:14:49;11.10;;;7.30;;
77880;SDS011;67077;50.298;18.996;2023-07-09T02:17:17;10.20;;;7.30;;
77880;SDS011;67077;50.298;18.996;2023-07-09T02:19:45;11.40;;;7.40;;
77880;SDS011;67077;50.298;18.996;2023-07-09T02:22:13;13.50;;;7.40;;
77880;SDS011;67077;50.298;18.996;2023-07-09T02:24:41;13.50;;;7.70;;
77880;SDS011;67077;50.298;18.996;2023-07-09T02:27:13;11.00;;;7.50;;
77880;SDS011;67077;50.298;18.996;2023-07-09T02:29:43;15.50;;;8.00;;
77880;SDS011;67077;50.298;18.996;2023-07-09T02:32:22;12.80;;;8.20;;
77880;SDS011;67077;50.298;18.996;2023-07-09T02:34:54;11.20;;;7.80;;
77880;SDS011;67077;50.298;18.996;2023-07-09T02:37:23;13.80;;;8.10;;
77880;SDS011;67077;50.298;18.996;2023-07-09T02:39:54;15.30;;;8.30;;
77880;SDS011;67077;50.298;18.996;2023-07-09T02:42:22;15.20;;;9.80;;
77880;SDS011;67077;50.298;18.996;2023-07-09T02:44:51;17.80;;;10.50;;
77880;SDS011;67077;50.298;18.996;2023-07-09T02:47:19;14.80;;;9.10;;
77880;SDS011;67077;50.298;18.996;2023-07-09T02:49:48;13.30;;;8.70;;
77880;SDS011;67077;50.298;18.996;2023-07-09T02:52:16;11.90;;;8.00;;
77880;SDS011;67077;50.298;18.996;2023-07-09T02:54:44;12.20;;;8.50;;
77880;SDS011;67077;50.298;18.996;2023-07-09T02:57:12;13.80;;;7.90;;
77880;SDS011;67077;50.298;18.996;2023-07-09T02:59:40;12.10;;;8.70;;
77880;SDS011;67077;50.298;18.996;2023-07-09T03:02:09;12.80;;;8.90;;
77880;SDS011;67077;50.298;18.996;2023-07-09T03:04:38;15.40;;;8.70;;
77880;SDS011;67077;50.298;18.996;2023-07-09T03:07:06;14.20;;;8.80;;
77880;SDS011;67077;50.298;18.996;2023-07-09T03:09:35;14.90;;;8.60;;
77880;SDS011;67077;50.298;18.996;2023-07-09T03:12:03;12.30;;;9.00;;
77880;SDS011;67077;50.298;18.996;2023-07-09T03:14:32;13.30;;;8.20;;
77880;SDS011;67077;50.298;18.996;2023-07-09T03:17:00;12.20;;;8.50;;
77880;SDS011;67077;50.298;18.996;2023-07-09T03:19:28;11.90;;;8.00;;
77880;SDS011;67077;50.298;18.996;2023-07-09T03:21:56;13.20;;;8.00;;
77880;SDS011;67077;50.298;18.996;2023-07-09T03:24:24;13.70;;;8.20;;
77880;SDS011;67077;50.298;18.996;2023-07-09T03:26:52;13.60;;;7.90;;
77880;SDS011;67077;50.298;18.996;2023-07-09T03:29:20;15.70;;;8.80;;
77880;SDS011;67077;50.298;18.996;2023-07-09T03:31:48;12.70;;;8.90;;
77880;SDS011;67077;50.298;18.996;2023-07-09T03:34:16;14.10;;;8.70;;
77880;SDS011;67077;50.298;18.996;2023-07-09T03:36:45;14.00;;;8.80;;
77880;SDS011;67077;50.298;18.996;2023-07-09T03:39:13;14.90;;;9.10;;
77880;SDS011;67077;50.298;18.996;2023-07-09T03:41:41;16.70;;;10.30;;
77880;SDS011;67077;50.298;18.996;2023-07-09T03:44:10;17.50;;;9.60;;
77880;SDS011;67077;50.298;18.996;2023-07-09T03:46:38;14.90;;;9.00;;
77880;SDS011;67077;50.298;18.996;2023-07-09T03:49:06;12.10;;;8.20;;
77880;SDS011;67077;50.298;18.996;2023-07-09T03:51:34;12.00;;;8.80;;
77880;SDS011;67077;50.298;18.996;2023-07-09T03:54:02;12.20;;;8.40;;
77880;SDS011;67077;50.298;18.996;2023-07-09T03:56:30;13.80;;;8.70;;
77880;SDS011;67077;50.298;18.996;2023-07-09T03:58:58;13.60;;;7.80;;
77880;SDS011;67077;50.298;18.996;2023-07-09T04:01:26;12.70;;;8.40;;
77880;SDS011;67077;50.298;18.996;2023-07-09T04:03:54;12.70;;;8.40;;
77880;SDS011;67077;50.298;18.996;2023-07-09T04:06:22;14.20;;;8.70;;
77880;SDS011;67077;50.298;18.996;2023-07-09T04:08:51;10.30;;;7.90;;
77880;SDS011;67077;50.298;18.996;2023-07-09T04:11:18;12.80;;;8.10;;
77880;SDS011;67077;50.298;18.996;2023-07-09T04:13:46;14.60;;;8.30;;
77880;SDS011;67077;50.298;18.996;2023-07-09T04:16:14;10.70;;;7.50;;
77880;SDS011;67077;50.298;18.996;2023-07-09T04:18:42;12.40;;;8.00;;
77880;SDS011;67077;50.298;18.996;2023-07-09T04:21:10;11.90;;;7.80;;
77880;SDS011;67077;50.298;18.996;2023-07-09T04:23:39;11.90;;;8.30;;
77880;SDS011;67077;50.298;18.996;2023-07-09T04:26:08;11.90;;;8.10;;
77880;SDS011;67077;50.298;18.996;2023-07-09T04:28:43;12.40;;;8.10;;
77880;SDS011;67077;50.298;18.996;2023-07-09T04:31:12;10.70;;;7.70;;
77880;SDS011;67077;50.298;18.996;2023-07-09T04:33:40;11.70;;;7.50;;
77880;SDS011;67077;50.298;18.996;2023-07-09T04:36:08;12.80;;;8.10;;
77880;SDS011;67077;50.298;18.996;2023-07-09T04:38:36;10.10;;;7.70;;
77880;SDS011;67077;50.298;18.996;2023-07-09T04:41:04;10.10;;;7.90;;
77880;SDS011;67077;50.298;18.996;2023-07-09T04:43:32;13.50;;;8.80;;
77880;SDS011;67077;50.298;18.996;2023-07-09T04:46:00;11.70;;;8.40;;
77880;SDS011;67077;50.298;18.996;2023-07-09T04:48:28;13.10;;;8.80;;
77880;SDS011;67077;50.298;18.996;2023-07-09T04:50:56;13.70;;;8.20;;
77880;SDS011;67077;50.298;18.996;2023-07-09T04:53:24;12.50;;;8.10;;
77880;SDS011;67077;50.298;18.996;2023-07-09T04:55:52;13.80;;;8.30;;
77880;SDS011;67077;50.298;18.996;2023-07-09T04:58:20;10.90;;;7.70;;
77880;SDS011;67077;50.298;18.996;2023-07-09T05:00:48;13.00;;;8.40;;
77880;SDS011;67077;50.298;18.996;2023-07-09T05:03:18;12.30;;;7.90;;
77880;SDS011;67077;50.298;18.996;2023-07-09T05:05:46;12.50;;;8.30;;
77880;SDS011;67077;50.298;18.996;2023-07-09T05:08:15;11.10;;;8.10;;
77880;SDS011;67077;50.298;18.996;2023-07-09T05:10:45;13.00;;;8.60;;
77880;SDS011;67077;50.298;18.996;2023-07-09T05:13:15;13.50;;;9.00;;
77880;SDS011;67077;50.298;18.996;2023-07-09T05:15:45;12.20;;;8.90;;
77880;SDS011;67077;50.298;18.996;2023-07-09T05:18:14;10.60;;;8.30;;
77880;SDS011;67077;50.298;18.996;2023-07-09T05:20:43;14.40;;;8.90;;
77880;SDS011;67077;50.298;18.996;2023-07-09T05:23:11;12.70;;;8.70;;
77880;SDS011;67077;50.298;18.996;2023-07-09T05:25:41;10.80;;;8.30;;
77880;SDS011;67077;50.298;18.996;2023-07-09T05:28:11;12.70;;;8.30;;
77880;SDS011;67077;50.298;18.996;2023-07-09T05:30:42;13.00;;;8.50;;
77880;SDS011;67077;50.298;18.996;2023-07-09T05:33:11;13.50;;;8.50;;
77880;SDS011;67077;50.298;18.996;2023-07-09T05:35:39;12.70;;;8.00;;
77880;SDS011;67077;50.298;18.996;2023-07-09T05:38:07;18.90;;;9.30;;
77880;SDS011;67077;50.298;18.996;2023-07-09T05:40:35;12.80;;;7.90;;
77880;SDS011;67077;50.298;18.996;2023-07-09T05:43:03;13.10;;;8.50;;
77880;SDS011;67077;50.298;18.996;2023-07-09T05:45:31;10.80;;;8.20;;
77880;SDS011;67077;50.298;18.996;2023-07-09T05:48:00;11.70;;;9.10;;
77880;SDS011;67077;50.298;18.996;2023-07-09T05:50:28;10.80;;;8.60;;
77880;SDS011;67077;50.298;18.996;2023-07-09T05:52:57;10.70;;;8.40;;
77880;SDS011;67077;50.298;18.996;2023-07-09T05:55:25;12.70;;;8.20;;
77880;SDS011;67077;50.298;18.996;2023-07-09T05:57:53;13.30;;;8.60;;
77880;SDS011;67077;50.298;18.996;2023-07-09T06:00:21;13.50;;;8.20;;
77880;SDS011;67077;50.298;18.996;2023-07-09T06:02:49;11.50;;;8.40;;
77880;SDS011;67077;50.298;18.996;2023-07-09T06:05:17;13.40;;;8.20;;
77880;SDS011;67077;50.298;18.996;2023-07-09T06:07:45;11.80;;;8.70;;
77880;SDS011;67077;50.298;18.996;2023-07-09T06:10:14;12.70;;;8.50;;
77880;SDS011;67077;50.298;18.996;2023-07-09T06:12:42;11.40;;;8.30;;
77880;SDS011;67077;50.298;18.996;2023-07-09T06:15:10;12.30;;;8.00;;
77880;SDS011;67077;50.298;18.996;2023-07-09T06:17:39;11.20;;;7.90;;
77880;SDS011;67077;50.298;18.996;2023-07-09T06:20:08;13.80;;;8.40;;
77880;SDS011;67077;50.298;18.996;2023-07-09T06:22:36;11.90;;;7.90;;
77880;SDS011;67077;50.298;18.996;2023-07-09T06:25:05;10.20;;;7.10;;
77880;SDS011;67077;50.298;18.996;2023-07-09T06:27:33;11.70;;;7.80;;
77880;SDS011;67077;50.298;18.996;2023-07-09T06:30:07;10.50;;;7.20;;
77880;SDS011;67077;50.298;18.996;2023-07-09T06:32:35;9.90;;;7.30;;
77880;SDS011;67077;50.298;18.996;2023-07-09T06:35:03;11.80;;;7.30;;
77880;SDS011;67077;50.298;18.996;2023-07-09T06:37:32;10.70;;;7.60;;
77880;SDS011;67077;50.298;18.996;2023-07-09T06:40:00;11.40;;;7.60;;
77880;SDS011;67077;50.298;18.996;2023-07-09T06:42:30;11.10;;;7.70;;
77880;SDS011;67077;50.298;18.996;2023-07-09T06:44:59;10.00;;;7.20;;
77880;SDS011;67077;50.298;18.996;2023-07-09T06:47:27;11.10;;;7.40;;
77880;SDS011;67077;50.298;18.996;2023-07-09T06:49:55;14.90;;;7.90;;
77880;SDS011;67077;50.298;18.996;2023-07-09T06:52:23;10.10;;;7.40;;
77880;SDS011;67077;50.298;18.996;2023-07-09T06:54:52;11.50;;;7.30;;
77880;SDS011;67077;50.298;18.996;2023-07-09T06:57:20;10.60;;;7.30;;
77880;SDS011;67077;50.298;18.996;2023-07-09T06:59:48;11.40;;;8.00;;
77880;SDS011;67077;50.298;18.996;2023-07-09T07:02:16;11.70;;;8.10;;
77880;SDS011;67077;50.298;18.996;2023-07-09T07:04:45;12.10;;;7.70;;
77880;SDS011;67077;50.298;18.996;2023-07-09T07:07:13;11.20;;;7.30;;
77880;SDS011;67077;50.298;18.996;2023-07-09T07:09:41;10.20;;;7.60;;
77880;SDS011;67077;50.298;18.996;2023-07-09T07:12:10;10.90;;;7.00;;
77880;SDS011;67077;50.298;18.996;2023-07-09T07:14:38;12.00;;;7.50;;
77880;SDS011;67077;50.298;18.996;2023-07-09T07:17:06;14.10;;;8.30;;
77880;SDS011;67077;50.298;18.996;2023-07-09T07:19:34;11.10;;;7.30;;
77880;SDS011;67077;50.298;18.996;2023-07-09T07:22:02;10.40;;;6.90;;
77880;SDS011;67077;50.298;18.996;2023-07-09T07:24:31;10.20;;;7.00;;
77880;SDS011;67077;50.298;18.996;2023-07-09T07:26:59;14.00;;;7.90;;
77880;SDS011;67077;50.298;18.996;2023-07-09T07:29:27;12.30;;;7.00;;
77880;SDS011;67077;50.298;18.996;2023-07-09T07:31:55;11.00;;;7.20;;
77880;SDS011;67077;50.298;18.996;2023-07-09T07:34:23;12.80;;;7.50;;
77880;SDS011;67077;50.298;18.996;2023-07-09T07:36:51;11.50;;;7.10;;
77880;SDS011;67077;50.298;18.996;2023-07-09T07:39:20;15.60;;;6.70;;
77880;SDS011;67077;50.298;18.996;2023-07-09T07:41:49;11.50;;;6.50;;
77880;SDS011;67077;50.298;18.996;2023-07-09T07:44:18;10.30;;;6.50;;
77880;SDS011;67077;50.298;18.996;2023-07-09T07:46:46;10.30;;;6.70;;
77880;SDS011;67077;50.298;18.996;2023-07-09T07:49:18;9.40;;;7.00;;
77880;SDS011;67077;50.298;18.996;2023-07-09T07:51:46;11.50;;;7.20;;
77880;SDS011;67077;50.298;18.996;2023-07-09T07:54:16;11.10;;;6.90;;
77880;SDS011;67077;50.298;18.996;2023-07-09T07:56:45;10.80;;;7.30;;
77880;SDS011;67077;50.298;18.996;2023-07-09T07:59:14;13.50;;;7.50;;
77880;SDS011;67077;50.298;18.996;2023-07-09T08:01:43;11.00;;;6.50;;
77880;SDS011;67077;50.298;18.996;2023-07-09T08:04:17;8.30;;;5.80;;
77880;SDS011;67077;50.298;18.996;2023-07-09T08:06:45;10.00;;;6.60;;
77880;SDS011;67077;50.298;18.996;2023-07-09T08:09:14;9.90;;;6.70;;
77880;SDS011;67077;50.298;18.996;2023-07-09T08:11:43;10.90;;;6.20;;
77880;SDS011;67077;50.298;18.996;2023-07-09T08:14:11;8.90;;;6.20;;
77880;SDS011;67077;50.298;18.996;2023-07-09T08:16:39;20.70;;;12.00;;
77880;SDS011;67077;50.298;18.996;2023-07-09T08:19:07;19.00;;;12.30;;
77880;SDS011;67077;50.298;18.996;2023-07-09T08:21:40;12.30;;;7.10;;
77880;SDS011;67077;50.298;18.996;2023-07-09T08:24:08;9.70;;;6.60;;
77880;SDS011;67077;50.298;18.996;2023-07-09T08:26:36;11.00;;;6.10;;
77880;SDS011;67077;50.298;18.996;2023-07-09T08:29:05;12.70;;;6.70;;
77880;SDS011;67077;50.298;18.996;2023-07-09T08:31:33;9.10;;;6.00;;
77880;SDS011;67077;50.298;18.996;2023-07-09T08:34:02;8.50;;;5.50;;
77880;SDS011;67077;50.298;18.996;2023-07-09T08:36:35;8.20;;;5.50;;
77880;SDS011;67077;50.298;18.996;2023-07-09T08:39:03;7.60;;;5.30;;
77880;SDS011;67077;50.298;18.996;2023-07-09T08:41:35;10.20;;;5.80;;
77880;SDS011;67077;50.298;18.996;2023-07-09T08:47:20;7.10;;;5.00;;
77880;SDS011;67077;50.298;18.996;2023-07-09T08:50:47;8.00;;;4.30;;
77880;SDS011;67077;50.298;18.996;2023-07-09T08:53:44;6.50;;;4.70;;
77880;SDS011;67077;50.298;18.996;2023-07-09T08:56:23;7.00;;;4.40;;
77880;SDS011;67077;50.298;18.996;2023-07-09T08:58:59;5.70;;;3.80;;
77880;SDS011;67077;50.298;18.996;2023-07-09T09:01:34;5.40;;;4.00;;
77880;SDS011;67077;50.298;18.996;2023-07-09T09:06:47;7.70;;;4.20;;
77880;SDS011;67077;50.298;18.996;2023-07-09T09:09:33;8.00;;;4.40;;
77880;SDS011;67077;50.298;18.996;2023-07-09T09:14:47;6.40;;;4.30;;
77880;SDS011;67077;50.298;18.996;2023-07-09T09:18:24;7.60;;;3.80;;
77880;SDS011;67077;50.298;18.996;2023-07-09T09:23:40;5.80;;;3.80;;
77880;SDS011;67077;50.298;18.996;2023-07-09T09:26:24;6.20;;;4.30;;
77880;SDS011;67077;50.298;18.996;2023-07-09T09:28:54;8.40;;;4.10;;
77880;SDS011;67077;50.298;18.996;2023-07-09T09:31:24;5.00;;;3.70;;
77880;SDS011;67077;50.298;18.996;2023-07-09T09:33:54;5.60;;;4.20;;
77880;SDS011;67077;50.298;18.996;2023-07-09T09:36:23;5.60;;;4.00;;
77880;SDS011;67077;50.298;18.996;2023-07-09T09:38:54;4.70;;;4.00;;
77880;SDS011;67077;50.298;18.996;2023-07-09T09:41:33;5.80;;;4.20;;
77880;SDS011;67077;50.298;18.996;2023-07-09T09:44:05;4.40;;;3.90;;
77880;SDS011;67077;50.298;18.996;2023-07-09T09:46:45;5.70;;;4.00;;
77880;SDS011;67077;50.298;18.996;2023-07-09T09:49:13;6.90;;;4.20;;
77880;SDS011;67077;50.298;18.996;2023-07-09T09:51:42;5.50;;;4.00;;
77880;SDS011;67077;50.298;18.996;2023-07-09T09:54:30;6.10;;;4.20;;
77880;SDS011;67077;50.298;18.996;2023-07-09T09:56:59;6.30;;;4.00;;
77880;SDS011;67077;50.298;18.996;2023-07-09T09:59:29;6.80;;;4.30;;
77880;SDS011;67077;50.298;18.996;2023-07-09T10:02:01;6.90;;;4.50;;
77880;SDS011;67077;50.298;18.996;2023-07-09T10:04:41;7.70;;;4.40;;
77880;SDS011;67077;50.298;18.996;2023-07-09T10:10:22;5.30;;;4.00;;
77880;SDS011;67077;50.298;18.996;2023-07-09T10:13:00;6.20;;;4.10;;
77880;SDS011;67077;50.298;18.996;2023-07-09T10:21:45;6.30;;;4.30;;
77880;SDS011;67077;50.298;18.996;2023-07-09T10:24:49;8.60;;;3.90;;
77880;SDS011;67077;50.298;18.996;2023-07-09T10:27:28;5.30;;;4.00;;
77880;SDS011;67077;50.298;18.996;2023-07-09T10:35:19;5.10;;;4.10;;
77880;SDS011;67077;50.298;18.996;2023-07-09T10:40:50;4.70;;;4.00;;
77880;SDS011;67077;50.298;18.996;2023-07-09T10:45:59;6.10;;;4.50;;
77880;SDS011;67077;50.298;18.996;2023-07-09T10:48:40;5.90;;;4.40;;
77880;SDS011;67077;50.298;18.996;2023-07-09T10:56:40;6.00;;;4.10;;
77880;SDS011;67077;50.298;18.996;2023-07-09T10:59:30;5.40;;;4.20;;
77880;SDS011;67077;50.298;18.996;2023-07-09T11:05:00;5.30;;;4.10;;
77880;SDS011;67077;50.298;18.996;2023-07-09T11:07:41;7.40;;;4.10;;
77880;SDS011;67077;50.298;18.996;2023-07-09T11:10:34;5.10;;;4.40;;
77880;SDS011;67077;50.298;18.996;2023-07-09T11:13:17;6.60;;;4.70;;
77880;SDS011;67077;50.298;18.996;2023-07-09T11:15:54;9.00;;;4.70;;
77880;SDS011;67077;50.298;18.996;2023-07-09T11:18:30;7.00;;;4.60;;
77880;SDS011;67077;50.298;18.996;2023-07-09T11:21:03;8.00;;;5.00;;
77880;SDS011;67077;50.298;18.996;2023-07-09T11:26:15;6.40;;;4.50;;
77880;SDS011;67077;50.298;18.996;2023-07-09T11:28:54;6.50;;;4.80;;
77880;SDS011;67077;50.298;18.996;2023-07-09T11:31:38;6.10;;;4.40;;
77880;SDS011;67077;50.298;18.996;2023-07-09T11:34:09;6.00;;;4.60;;
77880;SDS011;67077;50.298;18.996;2023-07-09T11:39:18;6.40;;;4.50;;
77880;SDS011;67077;50.298;18.996;2023-07-09T11:41:55;6.60;;;4.50;;
77880;SDS011;67077;50.298;18.996;2023-07-09T11:44:27;7.40;;;4.90;;
77880;SDS011;67077;50.298;18.996;2023-07-09T11:47:41;7.90;;;4.80;;
77880;SDS011;67077;50.298;18.996;2023-07-09T11:50:19;8.60;;;5.00;;
77880;SDS011;67077;50.298;18.996;2023-07-09T11:52:56;8.80;;;5.00;;
77880;SDS011;67077;50.298;18.996;2023-07-09T11:55:44;6.60;;;4.80;;
77880;SDS011;67077;50.298;18.996;2023-07-09T11:58:15;10.40;;;5.50;;
77880;SDS011;67077;50.298;18.996;2023-07-09T12:00:45;7.20;;;5.10;;
77880;SDS011;67077;50.298;18.996;2023-07-09T12:05:58;5.50;;;4.50;;
77880;SDS011;67077;50.298;18.996;2023-07-09T12:08:35;8.20;;;4.70;;
77880;SDS011;67077;50.298;18.996;2023-07-09T12:11:06;6.60;;;4.50;;
77880;SDS011;67077;50.298;18.996;2023-07-09T12:13:53;5.80;;;4.60;;
77880;SDS011;67077;50.298;18.996;2023-07-09T12:16:28;6.40;;;4.90;;
77880;SDS011;67077;50.298;18.996;2023-07-09T12:18:58;5.30;;;4.50;;
77880;SDS011;67077;50.298;18.996;2023-07-09T12:21:26;7.30;;;4.50;;
77880;SDS011;67077;50.298;18.996;2023-07-09T12:23:54;6.20;;;4.30;;
77880;SDS011;67077;50.298;18.996;2023-07-09T12:28:58;6.50;;;4.60;;
77880;SDS011;67077;50.298;18.996;2023-07-09T12:31:28;7.40;;;4.70;;
77880;SDS011;67077;50.298;18.996;2023-07-09T12:33:58;5.50;;;4.50;;
77880;SDS011;67077;50.298;18.996;2023-07-09T12:36:28;5.30;;;3.90;;
77880;SDS011;67077;50.298;18.996;2023-07-09T12:38:59;6.70;;;4.50;;
77880;SDS011;67077;50.298;18.996;2023-07-09T12:41:38;7.90;;;4.60;;
77880;SDS011;67077;50.298;18.996;2023-07-09T12:44:11;7.10;;;4.50;;
77880;SDS011;67077;50.298;18.996;2023-07-09T12:46:45;8.50;;;4.80;;
77880;SDS011;67077;50.298;18.996;2023-07-09T12:49:22;5.50;;;4.70;;
77880;SDS011;67077;50.298;18.996;2023-07-09T12:51:58;6.30;;;4.50;;
77880;SDS011;67077;50.298;18.996;2023-07-09T12:54:29;7.70;;;4.90;;
77880;SDS011;67077;50.298;18.996;2023-07-09T12:56:58;6.90;;;4.70;;
77880;SDS011;67077;50.298;18.996;2023-07-09T12:59:35;7.90;;;4.90;;
77880;SDS011;67077;50.298;18.996;2023-07-09T13:05:01;5.90;;;4.60;;
77880;SDS011;67077;50.298;18.996;2023-07-09T13:07:34;6.70;;;4.20;;
77880;SDS011;67077;50.298;18.996;2023-07-09T13:10:14;8.20;;;4.60;;
77880;SDS011;67077;50.298;18.996;2023-07-09T13:12:46;7.70;;;4.70;;
77880;SDS011;67077;50.298;18.996;2023-07-09T13:15:27;6.90;;;4.60;;
77880;SDS011;67077;50.298;18.996;2023-07-09T13:18:00;6.50;;;4.70;;
77880;SDS011;67077;50.298;18.996;2023-07-09T13:20:32;5.70;;;4.90;;
77880;SDS011;67077;50.298;18.996;2023-07-09T13:23:08;6.80;;;5.00;;
77880;SDS011;67077;50.298;18.996;2023-07-09T13:25:39;7.70;;;4.80;;
77880;SDS011;67077;50.298;18.996;2023-07-09T13:28:21;8.30;;;4.70;;
77880;SDS011;67077;50.298;18.996;2023-07-09T13:30:57;5.80;;;4.50;;
77880;SDS011;67077;50.298;18.996;2023-07-09T13:33:26;8.60;;;4.80;;
77880;SDS011;67077;50.298;18.996;2023-07-09T13:35:54;5.00;;;4.40;;
77880;SDS011;67077;50.298;18.996;2023-07-09T13:38:25;8.10;;;4.80;;
77880;SDS011;67077;50.298;18.996;2023-07-09T13:40:55;6.30;;;4.70;;
77880;SDS011;67077;50.298;18.996;2023-07-09T13:43:28;7.80;;;4.80;;
77880;SDS011;67077;50.298;18.996;2023-07-09T13:46:01;8.00;;;5.20;;
77880;SDS011;67077;50.298;18.996;2023-07-09T13:48:31;5.00;;;4.20;;
77880;SDS011;67077;50.298;18.996;2023-07-09T13:51:01;6.20;;;4.80;;
77880;SDS011;67077;50.298;18.996;2023-07-09T13:53:34;6.80;;;4.80;;
77880;SDS011;67077;50.298;18.996;2023-07-09T13:56:02;8.60;;;5.30;;
77880;SDS011;67077;50.298;18.996;2023-07-09T13:58:30;6.40;;;4.60;;
77880;SDS011;67077;50.298;18.996;2023-07-09T14:00:59;6.20;;;4.70;;
77880;SDS011;67077;50.298;18.996;2023-07-09T14:03:34;9.00;;;4.70;;
77880;SDS011;67077;50.298;18.996;2023-07-09T14:06:03;5.00;;;4.50;;
77880;SDS011;67077;50.298;18.996;2023-07-09T14:08:31;7.30;;;4.80;;
77880;SDS011;67077;50.298;18.996;2023-07-09T14:11:00;6.70;;;5.00;;
77880;SDS011;67077;50.298;18.996;2023-07-09T14:13:28;6.20;;;4.50;;
77880;SDS011;67077;50.298;18.996;2023-07-09T14:18:28;7.90;;;4.80;;
77880;SDS011;67077;50.298;18.996;2023-07-09T14:20:56;6.10;;;4.30;;
77880;SDS011;67077;50.298;18.996;2023-07-09T14:23:25;7.20;;;4.60;;
77880;SDS011;67077;50.298;18.996;2023-07-09T14:25:54;5.30;;;4.30;;
77880;SDS011;67077;50.298;18.996;2023-07-09T14:28:23;5.90;;;4.60;;
77880;SDS011;67077;50.298;18.996;2023-07-09T14:30:51;5.60;;;4.70;;
77880;SDS011;67077;50.298;18.996;2023-07-09T14:33:20;6.10;;;4.60;;
77880;SDS011;67077;50.298;18.996;2023-07-09T14:35:49;9.70;;;4.60;;
77880;SDS011;67077;50.298;18.996;2023-07-09T14:38:24;7.90;;;4.90;;
77880;SDS011;67077;50.298;18.996;2023-07-09T14:40:54;12.60;;;6.00;;
77880;SDS011;67077;50.298;18.996;2023-07-09T14:43:24;10.00;;;5.30;;
77880;SDS011;67077;50.298;18.996;2023-07-09T14:45:52;8.10;;;4.60;;
77880;SDS011;67077;50.298;18.996;2023-07-09T14:48:20;6.40;;;4.60;;
77880;SDS011;67077;50.298;18.996;2023-07-09T14:50:48;7.20;;;5.30;;
77880;SDS011;67077;50.298;18.996;2023-07-09T14:53:26;5.90;;;4.60;;
77880;SDS011;67077;50.298;18.996;2023-07-09T14:55:55;6.60;;;4.60;;
77880;SDS011;67077;50.298;18.996;2023-07-09T14:58:23;6.90;;;4.50;;
77880;SDS011;67077;50.298;18.996;2023-07-09T15:00:52;6.70;;;4.90;;
77880;SDS011;67077;50.298;18.996;2023-07-09T15:03:22;8.20;;;4.90;;
77880;SDS011;67077;50.298;18.996;2023-07-09T15:05:54;6.20;;;4.50;;
77880;SDS011;67077;50.298;18.996;2023-07-09T15:08:24;5.70;;;4.40;;
77880;SDS011;67077;50.298;18.996;2023-07-09T15:16:02;7.80;;;5.00;;
77880;SDS011;67077;50.298;18.996;2023-07-09T15:18:32;6.50;;;4.80;;
77880;SDS011;67077;50.298;18.996;2023-07-09T15:21:02;8.90;;;4.70;;
77880;SDS011;67077;50.298;18.996;2023-07-09T15:23:32;6.50;;;4.60;;
77880;SDS011;67077;50.298;18.996;2023-07-09T15:26:11;5.90;;;4.60;;
77880;SDS011;67077;50.298;18.996;2023-07-09T15:28:42;6.10;;;4.90;;
77880;SDS011;67077;50.298;18.996;2023-07-09T15:31:11;7.10;;;4.40;;
77880;SDS011;67077;50.298;18.996;2023-07-09T15:33:39;6.30;;;5.20;;
77880;SDS011;67077;50.298;18.996;2023-07-09T15:36:11;5.90;;;4.50;;
77880;SDS011;67077;50.298;18.996;2023-07-09T15:38:41;6.80;;;4.70;;
77880;SDS011;67077;50.298;18.996;2023-07-09T15:41:11;5.80;;;4.40;;
77880;SDS011;67077;50.298;18.996;2023-07-09T15:43:41;5.10;;;4.40;;
77880;SDS011;67077;50.298;18.996;2023-07-09T15:46:19;6.90;;;4.10;;
77880;SDS011;67077;50.298;18.996;2023-07-09T15:48:49;7.30;;;4.30;;
77880;SDS011;67077;50.298;18.996;2023-07-09T15:51:20;7.50;;;4.60;;
77880;SDS011;67077;50.298;18.996;2023-07-09T15:53:48;6.20;;;4.40;;
77880;SDS011;67077;50.298;18.996;2023-07-09T15:56:20;9.00;;;4.60;;
77880;SDS011;67077;50.298;18.996;2023-07-09T15:58:53;8.30;;;4.70;;